Archival Weather

General Ignacio P Garcia Intl

General Ignacio P Garcia Intl, Mexico (MMHO)

Report from: Wednesday, December 6, 2023 1:41 PM CST
Current time: Friday, February 23, 2024 1:10 PM CST

Current weather – Weather history – Daily summaries
Weather forecast

Temperature27.0°C (80.6°F)
Heat index26.2°C (79.2°F)
Dew point-2.0°C (28.4°F)
Winds Calm
Visibility10 mi. (16.1 km)
Clouds Scattered clouds 20,000 ft. (6,096 m)
Altimeter30.04 in.Hg (1017 mB)
Relative humidity15 %
Density altitude1,337 ft. (407 m)
Flight conditions Visual Meteorological Conditions
Raw dataMMHO 061941Z 00000KT 10SM SCT200 27/M02 A3004 RMK 8/008 ISOL AC HZY
An error has occurred. This application may no longer respond until reloaded. Reload 🗙